Time,TemperatureF,DewpointF,PressureIn,WindDirection,WindDirectionDegrees,WindSpeedMPH,WindSpeedGustMPH,Humidity,HourlyPrecipIn,Conditions,Clouds,dailyrainin,SoftwareType,DateUTC
2013-05-27 00:07:00,74.6,73.0,29.85,East,83,0.0,-999.0,95,-99.99,,,0.00,weatherlink.com 1.10,2013-05-27 05:07:00,
2013-05-27 00:22:00,74.4,73.0,29.85,East,83,0.0,-999.0,96,-99.99,,,0.00,weatherlink.com 1.10,2013-05-27 05:22:00,
2013-05-27 00:37:00,74.0,73.0,29.84,East,83,0.0,-999.0,96,-99.99,,,0.00,weatherlink.com 1.10,2013-05-27 05:37:00,
2013-05-27 00:52:00,73.9,73.0,29.84,East,83,0.0,-999.0,97,-99.99,,,0.00,weatherlink.com 1.10,2013-05-27 05:52:00,
2013-05-27 01:07:00,73.7,73.0,29.84,East,83,0.0,-999.0,98,-99.99,,,0.00,weatherlink.com 1.10,2013-05-27 06:07:00,
2013-05-27 01:22:00,73.5,73.0,29.84,East,83,0.0,-999.0,98,-99.99,,,0.00,weatherlink.com 1.10,2013-05-27 06:22:00,
2013-05-27 01:37:00,73.3,73.0,29.83,East,83,0.0,-999.0,99,-99.99,,,0.00,weatherlink.com 1.10,2013-05-27 06:37:00,
2013-05-27 01:52:00,73.2,73.0,29.82,East,83,0.0,-999.0,98,-99.99,,,0.00,weatherlink.com 1.10,2013-05-27 06:52:00,
2013-05-27 02:07:00,73.2,72.0,29.82,East,83,0.0,-999.0,95,-99.99,,,0.00,weatherlink.com 1.10,2013-05-27 07:07:00,
2013-05-27 02:22:00,73.2,71.0,29.82,East,96,0.0,-999.0,92,-99.99,,,0.00,weatherlink.com 1.10,2013-05-27 07:22:00,
2013-05-27 02:37:00,73.3,70.0,29.81,East,96,0.0,-999.0,90,-99.99,,,0.00,weatherlink.com 1.10,2013-05-27 07:37:00,
2013-05-27 02:52:00,73.5,70.0,29.81,ESE,104,1.0,-999.0,89,-99.99,,,0.00,weatherlink.com 1.10,2013-05-27 07:52:00,
2013-05-27 03:07:00,73.7,70.0,29.80,SSE,164,1.0,-999.0,88,-99.99,,,0.00,weatherlink.com 1.10,2013-05-27 08:07:00,
2013-05-27 03:22:00,73.9,70.0,29.80,SSW,199,1.0,-999.0,88,-99.99,,,0.00,weatherlink.com 1.10,2013-05-27 08:22:00,
2013-05-27 03:37:00,73.9,70.0,29.79,SW,216,0.0,-999.0,88,-99.99,,,0.00,weatherlink.com 1.10,2013-05-27 08:37:00,
2013-05-27 03:52:00,74.0,70.0,29.78,SSW,192,2.0,-999.0,87,-99.99,,,0.00,weatherlink.com 1.10,2013-05-27 08:52:00,
2013-05-27 04:07:00,73.9,70.0,29.77,SW,215,1.0,-999.0,88,-99.99,,,0.00,weatherlink.com 1.10,2013-05-27 09:07:00,
2013-05-27 04:22:00,73.7,70.0,29.77,SSW,195,1.0,-999.0,87,-99.99,,,0.00,weatherlink.com 1.10,2013-05-27 09:22:00,
2013-05-27 04:37:00,73.3,70.0,29.77,South,176,0.0,-999.0,88,-99.99,,,0.00,weatherlink.com 1.10,2013-05-27 09:37:00,
2013-05-27 04:52:00,72.8,70.0,29.77,South,188,0.0,-999.0,90,-99.99,,,0.00,weatherlink.com 1.10,2013-05-27 09:52:00,
2013-05-27 05:07:00,72.5,70.0,29.77,South,188,0.0,-999.0,91,-99.99,,,0.00,weatherlink.com 1.10,2013-05-27 10:07:00,
2013-05-27 05:22:00,72.0,69.0,29.78,SW,217,0.0,-999.0,91,-99.99,,,0.00,weatherlink.com 1.10,2013-05-27 10:22:00,
2013-05-27 05:37:00,71.8,69.0,29.78,SSE,150,1.0,-999.0,92,-99.99,,,0.00,weatherlink.com 1.10,2013-05-27 10:37:00,
2013-05-27 05:52:00,71.6,69.0,29.79,WSW,248,0.0,-999.0,92,-99.99,,,0.00,weatherlink.com 1.10,2013-05-27 10:52:00,
2013-05-27 06:07:00,71.3,69.0,29.79,South,175,0.0,-999.0,93,-99.99,,,0.00,weatherlink.com 1.10,2013-05-27 11:07:00,
2013-05-27 06:22:00,70.9,69.0,29.79,WSW,258,2.0,-999.0,94,-99.99,,,0.00,weatherlink.com 1.10,2013-05-27 11:22:00,
2013-05-27 06:37:00,70.6,69.0,29.80,WSW,251,4.0,-999.0,95,-99.99,,,0.00,weatherlink.com 1.10,2013-05-27 11:37:00,
2013-05-27 06:52:00,70.3,69.0,29.81,WSW,251,0.0,-999.0,95,-99.99,,,0.00,weatherlink.com 1.10,2013-05-27 11:52:00,
2013-05-27 07:07:00,70.4,69.0,29.81,SSW,198,1.0,-999.0,95,-99.99,,,0.00,weatherlink.com 1.10,2013-05-27 12:07:00,
2013-05-27 07:22:00,70.9,69.0,29.82,SSW,206,0.0,-999.0,94,-99.99,,,0.00,weatherlink.com 1.10,2013-05-27 12:22:00,
2013-05-27 07:37:00,71.5,69.0,29.82,SSW,202,0.0,-999.0,92,-99.99,,,0.00,weatherlink.com 1.10,2013-05-27 12:37:00,
2013-05-27 07:52:00,71.8,69.0,29.82,SW,217,1.0,-999.0,91,-99.99,,,0.00,weatherlink.com 1.10,2013-05-27 12:52:00,
2013-05-27 08:07:00,72.5,69.0,29.82,SSE,160,7.0,-999.0,89,-99.99,,,0.00,weatherlink.com 1.10,2013-05-27 13:07:00,
2013-05-27 08:22:00,73.3,69.0,29.82,SSE,150,2.0,-999.0,87,-99.99,,,0.00,weatherlink.com 1.10,2013-05-27 13:22:00,
2013-05-27 08:37:00,74.4,69.0,29.82,WSW,258,2.0,-999.0,83,-99.99,,,0.00,weatherlink.com 1.10,2013-05-27 13:37:00,
2013-05-27 08:52:00,74.2,68.0,29.83,South,186,4.0,-999.0,82,-99.99,,,0.00,weatherlink.com 1.10,2013-05-27 13:52:00,
2013-05-27 09:08:00,74.2,68.0,29.83,South,175,6.0,-999.0,81,-99.99,,,0.00,weatherlink.com 1.10,2013-05-27 14:08:00,
2013-05-27 09:23:00,74.2,68.0,29.83,SSW,205,2.0,-999.0,80,-99.99,,,0.00,weatherlink.com 1.10,2013-05-27 14:23:00,
2013-05-27 09:38:00,74.6,68.0,29.83,West,265,4.0,-999.0,79,-99.99,,,0.00,weatherlink.com 1.10,2013-05-27 14:38:00,
2013-05-27 09:53:00,74.2,68.0,29.83,SSE,155,4.0,-999.0,80,-99.99,,,0.00,weatherlink.com 1.10,2013-05-27 14:53:00,
2013-05-27 10:08:00,74.0,68.0,29.83,SSW,210,1.0,-999.0,81,-99.99,,,0.00,weatherlink.com 1.10,2013-05-27 15:08:00,
2013-05-27 10:23:00,74.0,68.0,29.83,WSW,253,2.0,-999.0,82,-99.99,,,0.00,weatherlink.com 1.10,2013-05-27 15:23:00,
2013-05-27 10:38:00,73.9,69.0,29.83,SW,216,0.0,-999.0,83,-99.99,,,0.00,weatherlink.com 1.10,2013-05-27 15:38:00,
2013-05-27 10:53:00,74.0,69.0,29.83,SSW,205,0.0,-999.0,83,-99.99,,,0.00,weatherlink.com 1.10,2013-05-27 15:53:00,
2013-05-27 11:08:00,74.4,69.0,29.83,WSW,244,2.0,-999.0,82,-99.99,,,0.00,weatherlink.com 1.10,2013-05-27 16:08:00,
2013-05-27 11:23:00,74.9,69.0,29.83,SSW,202,2.0,-999.0,81,-99.99,,,0.00,weatherlink.com 1.10,2013-05-27 16:23:00,
2013-05-27 11:38:00,75.1,69.0,29.83,South,176,6.0,-999.0,82,-99.99,,,0.00,weatherlink.com 1.10,2013-05-27 16:38:00,
2013-05-27 11:53:00,75.8,69.0,29.82,South,178,2.0,-999.0,80,-99.99,,,0.00,weatherlink.com 1.10,2013-05-27 16:53:00,
2013-05-27 12:08:00,77.4,70.0,29.81,SE,131,2.0,-999.0,77,-99.99,,,0.00,weatherlink.com 1.10,2013-05-27 17:08:00,
2013-05-27 12:23:00,77.0,69.0,29.81,WSW,244,1.0,-999.0,76,-99.99,,,0.00,weatherlink.com 1.10,2013-05-27 17:23:00,
2013-05-27 12:38:00,77.4,69.0,29.81,SW,216,14.0,-999.0,75,-99.99,,,0.00,weatherlink.com 1.10,2013-05-27 17:38:00,
2013-05-27 12:53:00,77.7,69.0,29.81,SW,232,1.0,-999.0,75,-99.99,,,0.00,weatherlink.com 1.10,2013-05-27 17:53:00,
2013-05-27 13:08:00,78.8,70.0,29.80,South,181,2.0,-999.0,74,-99.99,,,0.00,weatherlink.com 1.10,2013-05-27 18:08:00,
2013-05-27 13:23:00,79.4,70.0,29.80,SW,226,2.0,-999.0,72,-99.99,,,0.00,weatherlink.com 1.10,2013-05-27 18:23:00,
2013-05-27 13:38:00,80.3,71.0,29.79,South,176,9.0,-999.0,72,-99.99,,,0.00,weatherlink.com 1.10,2013-05-27 18:38:00,
2013-05-27 13:53:00,79.8,70.0,29.79,SSW,193,4.0,-999.0,72,-99.99,,,0.00,weatherlink.com 1.10,2013-05-27 18:53:00,
2013-05-27 14:08:00,80.1,70.0,29.79,SW,216,1.0,-999.0,71,-99.99,,,0.00,weatherlink.com 1.10,2013-05-27 19:08:00,
2013-05-27 14:23:00,80.5,70.0,29.79,South,189,1.0,-999.0,70,-99.99,,,0.00,weatherlink.com 1.10,2013-05-27 19:23:00,
2013-05-27 14:38:00,80.9,70.0,29.78,ENE,69,2.0,-999.0,70,-99.99,,,0.00,weatherlink.com 1.10,2013-05-27 19:38:00,
2013-05-27 14:53:00,81.1,70.0,29.77,SSE,147,1.0,-999.0,70,-99.99,,,0.00,weatherlink.com 1.10,2013-05-27 19:53:00,
2013-05-27 15:08:00,81.2,70.0,29.76,SW,234,7.0,-999.0,69,-99.99,,,0.00,weatherlink.com 1.10,2013-05-27 20:08:00,
2013-05-27 15:23:00,82.4,70.0,29.76,East,85,7.0,-999.0,67,-99.99,,,0.00,weatherlink.com 1.10,2013-05-27 20:23:00,
2013-05-27 15:38:00,82.8,70.0,29.75,South,185,14.0,-999.0,65,-99.99,,,0.00,weatherlink.com 1.10,2013-05-27 20:38:00,
2013-05-27 15:53:00,82.4,69.0,29.74,SSW,195,2.0,-999.0,65,-99.99,,,0.00,weatherlink.com 1.10,2013-05-27 20:53:00,
2013-05-27 16:08:00,82.4,71.0,29.73,SSW,212,1.0,-999.0,68,-99.99,,,0.00,weatherlink.com 1.10,2013-05-27 21:08:00,
2013-05-27 16:23:00,82.6,70.0,29.73,SSE,154,2.0,-999.0,65,-99.99,,,0.00,weatherlink.com 1.10,2013-05-27 21:23:00,
2013-05-27 16:38:00,83.0,70.0,29.73,SSE,147,4.0,-999.0,66,-99.99,,,0.00,weatherlink.com 1.10,2013-05-27 21:38:00,
2013-05-27 16:53:00,83.6,70.0,29.72,SW,217,7.0,-999.0,64,-99.99,,,0.00,weatherlink.com 1.10,2013-05-27 21:53:00,
2013-05-27 17:08:00,83.2,70.0,29.71,SW,222,7.0,-999.0,64,-99.99,,,0.00,weatherlink.com 1.10,2013-05-27 22:08:00,
2013-05-27 17:23:00,83.6,70.0,29.71,SSE,164,2.0,-999.0,63,-99.99,,,0.00,weatherlink.com 1.10,2013-05-27 22:23:00,
2013-05-27 17:38:00,83.6,70.0,29.70,NNE,30,6.0,-999.0,63,-99.99,,,0.00,weatherlink.com 1.10,2013-05-27 22:38:00,
2013-05-27 17:53:00,83.8,70.0,29.69,SW,215,6.0,-999.0,64,-99.99,,,0.00,weatherlink.com 1.10,2013-05-27 22:53:00,
2013-05-27 18:08:00,83.8,70.0,29.68,SSE,165,7.0,-999.0,63,-99.99,,,0.00,weatherlink.com 1.10,2013-05-27 23:08:00,
2013-05-27 18:23:00,83.6,69.0,29.68,SSE,157,2.0,-999.0,62,-99.99,,,0.00,weatherlink.com 1.10,2013-05-27 23:23:00,
2013-05-27 18:38:00,83.4,70.0,29.66,East,90,2.0,-999.0,64,-99.99,,,0.00,weatherlink.com 1.10,2013-05-27 23:38:00,
2013-05-27 18:53:00,83.4,70.0,29.65,NE,41,2.0,-999.0,64,-99.99,,,0.00,weatherlink.com 1.10,2013-05-27 23:53:00,
2013-05-27 19:08:00,82.6,70.0,29.65,South,186,0.0,-999.0,65,-99.99,,,0.00,weatherlink.com 1.10,2013-05-28 00:08:00,
2013-05-27 19:23:00,81.8,69.0,29.65,South,181,1.0,-999.0,66,-99.99,,,0.00,weatherlink.com 1.10,2013-05-28 00:23:00,
2013-05-27 19:38:00,81.4,70.0,29.66,South,169,0.0,-999.0,68,-99.99,,,0.00,weatherlink.com 1.10,2013-05-28 00:38:00,
2013-05-27 19:53:00,81.1,70.0,29.67,SSW,192,2.0,-999.0,68,-99.99,,,0.00,weatherlink.com 1.10,2013-05-28 00:53:00,
2013-05-27 20:08:00,80.5,70.0,29.68,SSW,192,4.0,-999.0,70,-99.99,,,0.00,weatherlink.com 1.10,2013-05-28 01:08:00,
2013-05-27 20:23:00,79.8,70.0,29.68,SSW,192,1.0,-999.0,72,-99.99,,,0.00,weatherlink.com 1.10,2013-05-28 01:23:00,
2013-05-27 20:38:00,79.2,70.0,29.67,SSW,195,0.0,-999.0,73,-99.99,,,0.00,weatherlink.com 1.10,2013-05-28 01:38:00,
2013-05-27 20:53:00,78.8,70.0,29.68,SSW,196,0.0,-999.0,74,-99.99,,,0.00,weatherlink.com 1.10,2013-05-28 01:53:00,
2013-05-27 21:08:00,78.5,70.0,29.68,SSW,199,1.0,-999.0,74,-99.99,,,0.00,weatherlink.com 1.10,2013-05-28 02:08:00,
2013-05-27 21:23:00,78.3,70.0,29.68,SSW,199,0.0,-999.0,75,-99.99,,,0.00,weatherlink.com 1.10,2013-05-28 02:23:00,
2013-05-27 21:38:00,77.4,70.0,29.68,South,184,0.0,-999.0,78,-99.99,,,0.00,weatherlink.com 1.10,2013-05-28 02:38:00,
2013-05-27 21:53:00,76.5,70.0,29.69,South,184,0.0,-999.0,81,-99.99,,,0.00,weatherlink.com 1.10,2013-05-28 02:53:00,
2013-05-27 22:08:00,76.5,70.0,29.69,South,181,0.0,-999.0,80,-99.99,,,0.00,weatherlink.com 1.10,2013-05-28 03:08:00,
2013-05-27 22:23:00,77.0,70.0,29.70,South,174,0.0,-999.0,78,-99.99,,,0.00,weatherlink.com 1.10,2013-05-28 03:23:00,
2013-05-27 22:38:00,77.0,70.0,29.71,South,174,0.0,-999.0,79,-99.99,,,0.00,weatherlink.com 1.10,2013-05-28 03:38:00,
2013-05-27 22:53:00,76.7,71.0,29.71,South,172,0.0,-999.0,81,-99.99,,,0.00,weatherlink.com 1.10,2013-05-28 03:53:00,
2013-05-27 23:08:00,75.8,70.0,29.71,South,172,0.0,-999.0,83,-99.99,,,0.00,weatherlink.com 1.10,2013-05-28 04:08:00,
2013-05-27 23:23:00,75.1,70.0,29.71,South,172,0.0,-999.0,85,-99.99,,,0.00,weatherlink.com 1.10,2013-05-28 04:23:00,
2013-05-27 23:38:00,74.9,70.0,29.70,South,172,0.0,-999.0,85,-99.99,,,0.00,weatherlink.com 1.10,2013-05-28 04:38:00,
2013-05-27 23:53:00,75.1,70.0,29.70,South,172,0.0,-999.0,85,-99.99,,,0.00,weatherlink.com 1.10,2013-05-28 04:53:00,